sensor_id;sensor_type;location;lat;lon;timestamp;P1;durP1;ratioP1;P2;durP2;ratioP2
43690;SDS011;29293;52.190;21.226;2023-04-19T00:02:39;8.60;;;5.00;;
43690;SDS011;29293;52.190;21.226;2023-04-19T00:17:46;9.70;;;5.50;;
43690;SDS011;29293;52.190;21.226;2023-04-19T00:32:53;8.10;;;4.90;;
43690;SDS011;29293;52.190;21.226;2023-04-19T00:48:00;8.30;;;5.70;;
43690;SDS011;29293;52.190;21.226;2023-04-19T01:18:59;10.40;;;6.10;;
43690;SDS011;29293;52.190;21.226;2023-04-19T01:34:16;10.60;;;6.70;;
43690;SDS011;29293;52.190;21.226;2023-04-19T01:49:23;11.70;;;8.10;;
43690;SDS011;29293;52.190;21.226;2023-04-19T03:47:43;12.70;;;9.20;;
43690;SDS011;29293;52.190;21.226;2023-04-19T04:02:51;11.40;;;7.90;;
43690;SDS011;29293;52.190;21.226;2023-04-19T04:17:58;12.60;;;9.20;;
43690;SDS011;29293;52.190;21.226;2023-04-19T04:33:04;14.60;;;9.50;;
43690;SDS011;29293;52.190;21.226;2023-04-19T04:48:14;12.00;;;9.30;;
43690;SDS011;29293;52.190;21.226;2023-04-19T05:03:21;17.60;;;12.00;;
43690;SDS011;29293;52.190;21.226;2023-04-19T05:18:29;16.20;;;12.60;;
43690;SDS011;29293;52.190;21.226;2023-04-19T05:33:36;18.20;;;14.60;;
43690;SDS011;29293;52.190;21.226;2023-04-19T05:48:43;19.40;;;14.90;;
43690;SDS011;29293;52.190;21.226;2023-04-19T06:03:50;22.90;;;15.70;;
43690;SDS011;29293;52.190;21.226;2023-04-19T06:18:57;19.60;;;14.30;;
43690;SDS011;29293;52.190;21.226;2023-04-19T06:34:03;18.00;;;13.70;;
43690;SDS011;29293;52.190;21.226;2023-04-19T06:49:10;15.30;;;11.30;;
43690;SDS011;29293;52.190;21.226;2023-04-19T07:04:17;18.20;;;11.80;;
43690;SDS011;29293;52.190;21.226;2023-04-19T07:19:24;14.80;;;10.80;;
43690;SDS011;29293;52.190;21.226;2023-04-19T07:49:58;14.20;;;10.10;;
43690;SDS011;29293;52.190;21.226;2023-04-19T08:05:05;13.00;;;9.60;;
43690;SDS011;29293;52.190;21.226;2023-04-19T08:20:13;16.30;;;9.90;;
43690;SDS011;29293;52.190;21.226;2023-04-19T08:35:20;12.50;;;8.40;;
43690;SDS011;29293;52.190;21.226;2023-04-19T08:50:28;12.70;;;9.60;;
43690;SDS011;29293;52.190;21.226;2023-04-19T09:05:35;12.60;;;8.80;;
43690;SDS011;29293;52.190;21.226;2023-04-19T09:20:42;13.20;;;8.30;;
43690;SDS011;29293;52.190;21.226;2023-04-19T09:35:49;14.60;;;9.90;;
43690;SDS011;29293;52.190;21.226;2023-04-19T09:50:57;12.90;;;10.00;;
43690;SDS011;29293;52.190;21.226;2023-04-19T10:06:05;14.90;;;8.80;;
43690;SDS011;29293;52.190;21.226;2023-04-19T10:21:13;14.40;;;10.00;;
43690;SDS011;29293;52.190;21.226;2023-04-19T10:36:20;15.10;;;10.60;;
43690;SDS011;29293;52.190;21.226;2023-04-19T10:51:33;11.70;;;8.50;;
43690;SDS011;29293;52.190;21.226;2023-04-19T11:22:17;11.50;;;7.90;;
43690;SDS011;29293;52.190;21.226;2023-04-19T11:37:32;10.80;;;6.60;;
43690;SDS011;29293;52.190;21.226;2023-04-19T11:52:39;7.90;;;5.70;;
43690;SDS011;29293;52.190;21.226;2023-04-19T12:23:07;7.80;;;5.50;;
43690;SDS011;29293;52.190;21.226;2023-04-19T12:38:16;9.60;;;6.20;;
43690;SDS011;29293;52.190;21.226;2023-04-19T12:53:23;11.00;;;6.10;;
43690;SDS011;29293;52.190;21.226;2023-04-19T13:08:30;11.50;;;7.00;;
43690;SDS011;29293;52.190;21.226;2023-04-19T13:23:41;9.20;;;7.00;;
43690;SDS011;29293;52.190;21.226;2023-04-19T13:38:48;9.70;;;7.20;;
43690;SDS011;29293;52.190;21.226;2023-04-19T13:53:55;10.50;;;7.00;;
43690;SDS011;29293;52.190;21.226;2023-04-19T14:09:02;10.90;;;7.20;;
43690;SDS011;29293;52.190;21.226;2023-04-19T14:24:09;10.10;;;7.10;;
43690;SDS011;29293;52.190;21.226;2023-04-19T14:39:16;8.90;;;6.50;;
43690;SDS011;29293;52.190;21.226;2023-04-19T14:54:23;10.20;;;6.70;;
43690;SDS011;29293;52.190;21.226;2023-04-19T15:09:30;9.10;;;5.30;;
43690;SDS011;29293;52.190;21.226;2023-04-19T15:24:37;11.40;;;5.70;;
43690;SDS011;29293;52.190;21.226;2023-04-19T15:39:43;11.40;;;6.80;;
43690;SDS011;29293;52.190;21.226;2023-04-19T15:54:55;11.30;;;6.90;;
43690;SDS011;29293;52.190;21.226;2023-04-19T16:10:02;13.50;;;8.10;;
43690;SDS011;29293;52.190;21.226;2023-04-19T16:25:10;16.00;;;11.30;;
43690;SDS011;29293;52.190;21.226;2023-04-19T17:30:48;15.20;;;11.20;;
43690;SDS011;29293;52.190;21.226;2023-04-19T17:45:55;20.60;;;12.80;;
43690;SDS011;29293;52.190;21.226;2023-04-19T18:59:33;23.40;;;14.50;;
43690;SDS011;29293;52.190;21.226;2023-04-19T19:14:41;22.60;;;14.10;;
43690;SDS011;29293;52.190;21.226;2023-04-19T19:29:47;20.50;;;11.50;;
43690;SDS011;29293;52.190;21.226;2023-04-19T19:44:54;15.50;;;9.10;;
43690;SDS011;29293;52.190;21.226;2023-04-19T20:00:01;15.50;;;10.50;;
43690;SDS011;29293;52.190;21.226;2023-04-19T20:15:13;25.80;;;14.50;;
43690;SDS011;29293;52.190;21.226;2023-04-19T20:30:20;17.30;;;10.20;;
43690;SDS011;29293;52.190;21.226;2023-04-19T20:45:27;16.70;;;8.80;;
43690;SDS011;29293;52.190;21.226;2023-04-19T21:00:34;12.80;;;8.10;;
43690;SDS011;29293;52.190;21.226;2023-04-19T21:15:41;17.30;;;8.60;;
43690;SDS011;29293;52.190;21.226;2023-04-19T21:30:47;12.10;;;7.20;;
